Terminal Aerodrome Forecast
Issued by NWS

Home | Current Version | Previous Version | Text Only | Print | Product List | Glossary On
Versions: 1 2 3 4 5 6 7 8 9 10 11 12 13 14
475
FTUS41 KBTV 171120
TAFMSS
TAF
KMSS 171120Z 1712/1812 07006KT P6SM BKN250
     FM171900 06011KT P6SM VCSH BKN050
     FM172200 07011KT P6SM -FZRASNPL OVC025
     FM180100 07011KT 2SM -SNPL BR OVC008
     FM180600 07007KT 4SM -SNPL BR OVC008=

USA.gov is the U.S. government's official web portal to all federal, state and local government web resources and services.